Time;durP1;ratioP1;P1;durP2;ratioP2;P2;SDS_P1;SDS_P2;PMS_P1;PMS_P2;Temp;Humidity;BMP_temperature;BMP_pressure;BME280_temperature;BME280_humidity;BME280_pressure;Samples;Min_cycle;Max_cycle;Signal;HPM_P1;HPM_P2
2024/03/17 00:03:40;;;;;;;;;;;;;;;7.67;100.00;95005.59;10306279;28;19992;-80
2024/03/17 00:08:41;;;;;;;;;;;;;;;7.52;100.00;95002.69;10302366;28;19941;-79
2024/03/17 00:13:41;;;;;;;;;;;;;;;7.43;100.00;95009.53;10320602;28;20676;-79
2024/03/17 00:18:41;;;;;;;;;;;;;;;7.47;100.00;95000.75;10305336;28;19910;-80
2024/03/17 00:23:41;;;;;;;;;;;;;;;7.26;100.00;94997.00;10330445;28;19910;-80
2024/03/17 00:28:42;;;;;;;;;;;;;;;6.92;100.00;94994.34;10308309;28;20371;-79
2024/03/17 00:33:42;;;;;;;;;;;;;;;6.93;100.00;94995.97;10315481;28;20011;-79
2024/03/17 00:38:42;;;;;;;;;;;;;;;6.90;100.00;94993.78;10308112;28;20005;-79
2024/03/17 00:43:43;;;;;;;;;;;;;;;6.62;100.00;94984.78;10296736;28;19917;-79
2024/03/17 00:48:43;;;;;;;;;;;;;;;6.60;100.00;94986.91;10310114;28;20000;-78
2024/03/17 00:53:43;;;;;;;;;;;;;;;6.61;100.00;94993.84;10309515;28;19917;-78
2024/03/17 00:58:47;;;;;;;;;;;;;;;6.67;100.00;94998.22;10316857;28;20372;-80
2024/03/17 01:03:48;;;;;;;;;;;;;;;6.62;100.00;94995.47;10317096;28;19968;-81
2024/03/17 01:08:48;;;;;;;;;;;;;;;6.64;100.00;95003.22;10307660;28;19968;-79
2024/03/17 01:13:48;;;;;;;;;;;;;;;6.51;100.00;94999.00;10312998;28;20338;-80
2024/03/17 01:18:49;;;;;;;;;;;;;;;6.25;100.00;94995.91;10307429;28;19914;-78
2024/03/17 01:23:49;;;;;;;;;;;;;;;6.20;100.00;95003.00;10313741;28;19909;-80
2024/03/17 01:28:50;;;;;;;;;;;;;;;6.07;100.00;94999.59;10321765;28;19909;-79
2024/03/17 01:33:50;;;;;;;;;;;;;;;6.05;100.00;95008.88;10324833;28;20615;-78
2024/03/17 01:38:50;;;;;;;;;;;;;;;5.95;100.00;95006.78;10322541;28;19990;-79
2024/03/17 01:43:50;;;;;;;;;;;;;;;5.92;100.00;95005.38;10328923;28;19910;-80
2024/03/17 01:48:51;;;;;;;;;;;;;;;5.91;100.00;95010.97;10308386;28;19922;-80
2024/03/17 01:53:52;;;;;;;;;;;;;;;5.89;100.00;95005.03;10324518;28;19914;-79
2024/03/17 01:58:53;;;;;;;;;;;;;;;5.93;100.00;95001.69;10311849;28;20344;-80
2024/03/17 02:03:54;;;;;;;;;;;;;;;6.09;100.00;95002.81;10310876;28;19936;-79
2024/03/17 02:08:54;;;;;;;;;;;;;;;6.16;100.00;95008.00;10310012;28;20622;-80
2024/03/17 02:14:02;;;;;;;;;;;;;;;6.09;100.00;95000.13;10289291;28;19921;-81
2024/03/17 02:19:03;;;;;;;;;;;;;;;6.23;100.00;95006.00;10288863;28;20369;-81
2024/03/17 02:24:03;;;;;;;;;;;;;;;6.20;100.00;95008.34;10321686;28;20008;-82
2024/03/17 02:29:04;;;;;;;;;;;;;;;6.17;100.00;94998.97;10295623;28;19913;-82
2024/03/17 02:34:04;;;;;;;;;;;;;;;5.94;100.00;94999.81;10309068;28;19924;-80
2024/03/17 02:44:23;;;;;;;;;;;;;;;5.96;100.00;95008.41;10318615;28;19921;-80
2024/03/17 02:49:27;;;;;;;;;;;;;;;5.88;100.00;95000.78;10314108;28;19917;-85
2024/03/17 02:54:27;;;;;;;;;;;;;;;5.95;100.00;94994.25;10309130;28;19913;-82
2024/03/17 02:59:27;;;;;;;;;;;;;;;5.94;100.00;94994.47;10310367;28;19910;-81
2024/03/17 03:04:28;;;;;;;;;;;;;;;5.84;100.00;94995.09;10308379;28;19910;-81
2024/03/17 03:09:31;;;;;;;;;;;;;;;5.72;100.00;94994.31;10308489;28;20004;-81
2024/03/17 03:14:31;;;;;;;;;;;;;;;5.65;100.00;94991.78;10313269;28;19921;-80
2024/03/17 03:19:32;;;;;;;;;;;;;;;5.53;100.00;94994.47;10331517;28;20749;-82
2024/03/17 03:24:32;;;;;;;;;;;;;;;5.53;100.00;94989.16;10308218;28;20012;-80
2024/03/17 03:29:33;;;;;;;;;;;;;;;5.59;100.00;94992.72;10308117;28;19910;-80
2024/03/17 03:34:33;;;;;;;;;;;;;;;5.54;100.00;94993.44;10318055;28;19914;-80
2024/03/17 03:39:36;;;;;;;;;;;;;;;5.63;100.00;95004.53;10309875;28;19988;-82
2024/03/17 03:44:36;;;;;;;;;;;;;;;5.68;100.00;95006.50;10290539;28;19913;-82
2024/03/17 03:49:36;;;;;;;;;;;;;;;5.62;100.00;95014.41;10296316;28;20280;-79
2024/03/17 03:54:37;;;;;;;;;;;;;;;5.55;100.00;95012.91;10315297;28;20277;-81
2024/03/17 03:59:37;;;;;;;;;;;;;;;5.41;100.00;95020.34;10306999;28;19910;-80
2024/03/17 04:04:37;;;;;;;;;;;;;;;5.38;100.00;95016.28;10289261;28;19931;-81
2024/03/17 04:09:38;;;;;;;;;;;;;;;5.40;100.00;95024.88;10306519;28;19909;-83
2024/03/17 04:14:38;;;;;;;;;;;;;;;5.41;100.00;95020.34;10289675;28;20361;-83
2024/03/17 04:19:38;;;;;;;;;;;;;;;5.46;100.00;95031.13;10289196;28;19913;-84
2024/03/17 04:24:38;;;;;;;;;;;;;;;5.46;100.00;95037.25;10306852;28;20009;-83
2024/03/17 04:29:42;;;;;;;;;;;;;;;5.43;100.00;95039.59;10309601;28;19909;-83
2024/03/17 04:34:46;;;;;;;;;;;;;;;5.36;100.00;95046.88;10319814;28;19985;-83
2024/03/17 04:39:47;;;;;;;;;;;;;;;5.44;100.00;95055.34;10317585;28;19922;-83
2024/03/17 04:44:47;;;;;;;;;;;;;;;5.47;100.00;95062.06;10296317;28;20303;-83
2024/03/17 04:49:48;;;;;;;;;;;;;;;5.47;100.00;95057.53;10314404;28;20610;-83
2024/03/17 04:54:56;;;;;;;;;;;;;;;5.48;100.00;95066.34;10313748;28;19913;-84
2024/03/17 04:59:56;;;;;;;;;;;;;;;5.52;100.00;95072.81;10312091;28;20427;-84
2024/03/17 05:04:56;;;;;;;;;;;;;;;5.56;100.00;95081.19;10326560;28;19984;-82
2024/03/17 05:10:06;;;;;;;;;;;;;;;5.62;100.00;95080.22;10296422;28;19910;-81
2024/03/17 05:15:07;;;;;;;;;;;;;;;5.62;100.00;95089.06;10320210;28;19913;-82
2024/03/17 05:20:17;;;;;;;;;;;;;;;5.81;100.00;95096.91;10312180;28;19917;-82
2024/03/17 05:25:40;;;;;;;;;;;;;;;5.95;100.00;95100.16;10323483;28;20264;-82
2024/03/17 05:30:40;;;;;;;;;;;;;;;6.09;100.00;95104.19;10325154;28;19909;-82
2024/03/17 05:35:40;;;;;;;;;;;;;;;6.38;100.00;95098.91;10312015;28;19917;-82
2024/03/17 05:40:41;;;;;;;;;;;;;;;6.84;100.00;95098.94;10311805;28;20392;-82
2024/03/17 05:45:41;;;;;;;;;;;;;;;7.30;100.00;95093.56;10312236;28;19910;-82
2024/03/17 05:50:42;;;;;;;;;;;;;;;7.64;100.00;95093.53;10294040;28;19913;-82
2024/03/17 05:55:43;;;;;;;;;;;;;;;8.16;100.00;95085.13;10321634;28;19921;-82
2024/03/17 06:00:43;;;;;;;;;;;;;;;8.51;100.00;95089.31;10311260;28;19917;-83
2024/03/17 06:05:45;;;;;;;;;;;;;;;8.90;100.00;95091.03;10321089;28;20599;-83
2024/03/17 06:10:47;;;;;;;;;;;;;;;9.29;100.00;95090.84;10310057;28;20400;-81
2024/03/17 06:15:47;;;;;;;;;;;;;;;9.65;100.00;95096.47;10310586;28;19909;-82
2024/03/17 06:20:47;;;;;;;;;;;;;;;10.03;100.00;95097.25;10313065;28;19914;-82
2024/03/17 06:26:02;;;;;;;;;;;;;;;10.46;100.00;95096.41;10303624;28;19968;-82
2024/03/17 06:31:06;;;;;;;;;;;;;;;11.08;100.00;95103.56;10309993;28;20308;-84
2024/03/17 06:36:08;;;;;;;;;;;;;;;11.51;100.00;95102.50;10315502;28;19918;-84
2024/03/17 06:41:14;;;;;;;;;;;;;;;11.72;100.00;95104.09;10308407;28;20698;-84
2024/03/17 06:46:15;;;;;;;;;;;;;;;12.46;100.00;95112.56;10308864;28;20316;-83
2024/03/17 06:51:16;;;;;;;;;;;;;;;13.19;100.00;95109.50;10292763;28;19914;-84
2024/03/17 06:56:16;;;;;;;;;;;;;;;13.37;100.00;95113.44;10308669;28;19909;-89
2024/03/17 07:01:19;;;;;;;;;;;;;;;13.70;92.73;95116.44;10300931;28;20408;-91
2024/03/17 07:06:19;;;;;;;;;;;;;;;14.40;88.55;95101.69;10293490;28;19956;-82
2024/03/17 07:11:27;;;;;;;;;;;;;;;15.09;80.16;95104.88;10308161;28;20496;-80
2024/03/17 07:16:28;;;;;;;;;;;;;;;15.28;74.67;95102.19;10321256;28;19916;-82
2024/03/17 07:21:28;;;;;;;;;;;;;;;15.33;75.53;95099.38;10317831;28;20427;-76
2024/03/17 07:26:28;;;;;;;;;;;;;;;15.48;70.53;95095.63;10289137;28;19932;-78
2024/03/17 07:31:35;;;;;;;;;;;;;;;16.28;62.68;95090.22;10294689;28;20625;-82
2024/03/17 07:36:36;;;;;;;;;;;;;;;16.97;59.43;95094.03;10273662;28;19927;-76
2024/03/17 07:41:36;;;;;;;;;;;;;;;16.52;62.86;95100.06;10293107;28;19920;-78
2024/03/17 07:46:36;;;;;;;;;;;;;;;16.24;61.97;95097.34;10290827;28;20030;-81
2024/03/17 07:51:36;;;;;;;;;;;;;;;15.57;67.82;95101.19;10297082;28;20004;-81
2024/03/17 07:56:37;;;;;;;;;;;;;;;14.69;78.51;95104.34;10294743;28;19909;-79
2024/03/17 08:01:37;;;;;;;;;;;;;;;14.57;81.87;95095.78;10292609;28;20420;-77
2024/03/17 08:06:38;;;;;;;;;;;;;;;14.29;86.34;95100.97;10293719;28;19909;-78
2024/03/17 08:11:43;;;;;;;;;;;;;;;14.02;84.14;95103.16;10295196;28;19987;-81
2024/03/17 08:16:43;;;;;;;;;;;;;;;13.83;86.75;95100.38;10288375;28;19917;-79
2024/03/17 08:21:45;;;;;;;;;;;;;;;13.73;88.51;95099.66;10308977;28;19965;-79
2024/03/17 08:26:45;;;;;;;;;;;;;;;14.01;87.51;95100.75;10310204;28;20352;-79
2024/03/17 08:31:45;;;;;;;;;;;;;;;14.36;82.12;95096.06;10309087;28;20007;-80
2024/03/17 08:36:45;;;;;;;;;;;;;;;14.60;82.05;95087.91;10309284;28;19921;-80
2024/03/17 08:41:46;;;;;;;;;;;;;;;14.95;73.55;95079.66;10305940;28;19913;-80
2024/03/17 08:46:46;;;;;;;;;;;;;;;14.94;76.71;95078.03;10312403;28;19910;-80
2024/03/17 08:51:46;;;;;;;;;;;;;;;15.15;75.36;95078.53;10311328;28;19914;-79
2024/03/17 08:56:48;;;;;;;;;;;;;;;15.44;73.49;95074.88;10309675;28;20341;-81
2024/03/17 09:01:48;;;;;;;;;;;;;;;15.68;69.25;95064.72;10315061;28;20360;-80
2024/03/17 09:06:49;;;;;;;;;;;;;;;16.11;67.94;95060.97;10294354;28;19909;-81
2024/03/17 09:11:51;;;;;;;;;;;;;;;15.17;66.96;95063.63;10294897;28;19913;-80
2024/03/17 09:16:51;;;;;;;;;;;;;;;15.32;75.79;95048.22;10310850;28;19913;-79
2024/03/17 09:21:51;;;;;;;;;;;;;;;16.10;73.23;95045.81;10310797;28;19917;-80
2024/03/17 09:26:52;;;;;;;;;;;;;;;16.61;69.57;95044.00;10308753;28;20261;-81
2024/03/17 09:31:53;;;;;;;;;;;;;;;17.33;68.33;95039.72;10285173;28;20032;-78
2024/03/17 09:36:53;;;;;;;;;;;;;;;17.39;57.61;95022.16;10303646;28;20012;-82
2024/03/17 09:41:53;;;;;;;;;;;;;;;17.56;54.15;95018.75;10281905;28;19925;-80
2024/03/17 09:46:54;;;;;;;;;;;;;;;18.18;51.93;95014.47;10305513;28;20399;-79
2024/03/17 09:51:57;;;;;;;;;;;;;;;19.23;48.73;95009.19;10280737;28;20619;-80
2024/03/17 09:56:58;;;;;;;;;;;;;;;19.83;43.15;95000.44;10284716;28;19914;-79
2024/03/17 10:01:58;;;;;;;;;;;;;;;20.27;39.31;95001.09;10302027;28;19917;-79
2024/03/17 10:06:58;;;;;;;;;;;;;;;20.52;36.94;95002.06;10301252;28;19910;-81
2024/03/17 10:11:59;;;;;;;;;;;;;;;20.43;39.08;95004.06;10304279;28;19921;-84
2024/03/17 10:16:59;;;;;;;;;;;;;;;21.24;37.02;94998.53;10305305;28;19928;-84
2024/03/17 10:22:00;;;;;;;;;;;;;;;21.37;35.68;95007.63;10286624;28;20613;-80
2024/03/17 10:27:01;;;;;;;;;;;;;;;20.96;35.84;95004.56;10305436;28;19925;-85
2024/03/17 10:32:03;;;;;;;;;;;;;;;22.22;35.96;95000.78;10286362;28;19964;-85
2024/03/17 10:37:27;;;;;;;;;;;;;;;20.51;36.37;95003.19;10304173;28;20479;-84
2024/03/17 10:42:36;;;;;;;;;;;;;;;17.91;38.10;95010.81;10302187;28;20469;-85
2024/03/17 10:47:36;;;;;;;;;;;;;;;16.74;42.16;95018.75;10301510;28;19910;-85
2024/03/17 10:52:40;;;;;;;;;;;;;;;16.82;44.51;95011.00;10285582;28;20377;-86
2024/03/17 10:57:48;;;;;;;;;;;;;;;17.35;43.13;95012.22;10301371;28;20304;-83
2024/03/17 11:02:49;;;;;;;;;;;;;;;17.33;41.82;95004.41;10298512;28;19959;-85
2024/03/17 11:07:54;;;;;;;;;;;;;;;17.93;41.00;94989.56;10300959;28;19918;-84
2024/03/17 11:12:58;;;;;;;;;;;;;;;17.90;39.12;94986.63;10300081;28;19949;-87
2024/03/17 11:18:07;;;;;;;;;;;;;;;16.40;39.37;94992.09;10282585;28;19913;-85
2024/03/17 11:23:09;;;;;;;;;;;;;;;17.00;41.20;94985.63;10299925;28;20335;-82
2024/03/17 11:28:12;;;;;;;;;;;;;;;17.66;41.30;94982.34;10300177;28;19916;-83
2024/03/17 11:33:31;;;;;;;;;;;;;;;16.66;43.12;94983.38;10281321;28;19972;-85
2024/03/17 11:38:50;;;;;;;;;;;;;;;16.11;45.54;94974.22;10277531;28;20021;-84
2024/03/17 11:44:12;;;;;;;;;;;;;;;16.01;49.89;94975.22;10303828;28;19952;-93
2024/03/17 11:49:18;;;;;;;;;;;;;;;16.76;49.75;94966.88;10312911;28;20377;-91
2024/03/17 11:59:59;;;;;;;;;;;;;;;17.71;42.58;94954.25;10381266;28;19917;-94
2024/03/17 12:05:13;;;;;;;;;;;;;;;16.47;44.24;94946.34;10333882;28;19909;-93
2024/03/17 12:10:14;;;;;;;;;;;;;;;16.02;48.76;94948.94;10282465;28;19955;-77
2024/03/17 12:15:19;;;;;;;;;;;;;;;16.72;45.10;94939.53;10291625;28;20462;-74
2024/03/17 12:20:20;;;;;;;;;;;;;;;17.49;43.66;94936.88;10286095;28;19976;-74
2024/03/17 12:25:23;;;;;;;;;;;;;;;18.01;42.66;94933.59;10285644;28;19909;-74
2024/03/17 12:30:23;;;;;;;;;;;;;;;18.01;41.25;94939.03;10296932;28;20633;-78
2024/03/17 12:35:23;;;;;;;;;;;;;;;17.88;42.55;94929.84;10291586;28;19947;-78
2024/03/17 12:40:24;;;;;;;;;;;;;;;17.70;44.11;94948.00;10291905;28;19914;-77
2024/03/17 12:45:24;;;;;;;;;;;;;;;17.78;45.87;94935.56;10294030;28;19910;-77
2024/03/17 12:50:25;;;;;;;;;;;;;;;17.17;46.64;94930.63;10293501;28;20363;-77
2024/03/17 13:00:44;;;;;;;;;;;;;;;16.34;50.27;94928.19;10294869;28;20367;-78
2024/03/17 13:05:46;;;;;;;;;;;;;;;15.88;50.72;94927.25;10265367;28;19913;-79
2024/03/17 13:10:47;;;;;;;;;;;;;;;16.04;54.61;94931.25;10297466;28;19920;-78
2024/03/17 13:15:47;;;;;;;;;;;;;;;16.10;54.41;94933.84;10280703;28;19920;-78
2024/03/17 13:20:53;;;;;;;;;;;;;;;16.12;57.56;94932.44;10301388;28;20389;-78
2024/03/17 13:25:53;;;;;;;;;;;;;;;16.30;58.15;94924.47;10298509;28;20301;-78
2024/03/17 13:30:53;;;;;;;;;;;;;;;16.48;56.85;94926.25;10300454;28;19918;-78
2024/03/17 13:35:54;;;;;;;;;;;;;;;16.08;57.89;94936.09;10298617;28;19932;-77
2024/03/17 13:40:54;;;;;;;;;;;;;;;16.10;60.13;94926.50;10298182;28;20304;-78
2024/03/17 13:45:54;;;;;;;;;;;;;;;15.88;64.23;94932.69;10283389;28;20380;-79
2024/03/17 13:50:55;;;;;;;;;;;;;;;15.63;67.63;94931.22;10299076;28;19918;-78
2024/03/17 13:55:55;;;;;;;;;;;;;;;15.64;64.98;94927.41;10296541;28;19918;-79
2024/03/17 14:00:56;;;;;;;;;;;;;;;15.32;67.30;94924.50;10298438;28;19917;-77
2024/03/17 14:05:56;;;;;;;;;;;;;;;14.96;65.05;94914.28;10281485;28;19972;-77
2024/03/17 14:10:56;;;;;;;;;;;;;;;14.46;72.88;94917.44;10293918;28;19921;-77
2024/03/17 14:15:57;;;;;;;;;;;;;;;13.72;81.59;94906.28;10287263;28;19918;-74
2024/03/17 14:20:57;;;;;;;;;;;;;;;14.19;83.56;94918.09;10296102;28;19913;-77
2024/03/17 14:25:57;;;;;;;;;;;;;;;14.35;81.70;94910.59;10290402;28;20713;-76
2024/03/17 14:30:58;;;;;;;;;;;;;;;14.57;75.62;94909.16;10300064;28;19916;-78
2024/03/17 14:35:58;;;;;;;;;;;;;;;14.41;77.18;94906.69;10274003;28;19929;-77
2024/03/17 14:40:58;;;;;;;;;;;;;;;14.23;84.15;94910.22;10284261;28;20041;-81
2024/03/17 14:45:59;;;;;;;;;;;;;;;14.22;82.40;94901.31;10300136;28;19909;-81
2024/03/17 14:50:59;;;;;;;;;;;;;;;14.34;83.81;94900.84;10302471;28;19910;-81
2024/03/17 14:55:59;;;;;;;;;;;;;;;14.32;82.92;94901.16;10300698;28;20032;-81
2024/03/17 15:00:59;;;;;;;;;;;;;;;14.38;82.36;94898.38;10296679;28;19913;-80
2024/03/17 15:06:00;;;;;;;;;;;;;;;14.28;83.26;94896.63;10280966;28;20288;-81
2024/03/17 15:11:00;;;;;;;;;;;;;;;14.42;86.20;94886.69;10300800;28;20339;-81
2024/03/17 15:16:04;;;;;;;;;;;;;;;14.24;88.81;94887.50;10278285;28;19972;-84
2024/03/17 15:21:07;;;;;;;;;;;;;;;14.26;96.84;94902.34;10272808;28;20343;-81
2024/03/17 15:26:08;;;;;;;;;;;;;;;14.26;94.97;94896.09;10297646;28;19914;-82
2024/03/17 15:31:11;;;;;;;;;;;;;;;14.11;97.84;94897.94;10299533;28;19913;-83
2024/03/17 15:36:12;;;;;;;;;;;;;;;14.00;99.29;94899.16;10299431;28;20697;-83
2024/03/17 15:41:12;;;;;;;;;;;;;;;13.98;99.20;94898.66;10277012;28;19910;-80
2024/03/17 15:46:14;;;;;;;;;;;;;;;13.92;98.09;94891.72;10294470;28;19917;-80
2024/03/17 15:51:18;;;;;;;;;;;;;;;13.92;96.51;94897.13;10268602;28;20265;-80
2024/03/17 15:56:18;;;;;;;;;;;;;;;13.66;96.81;94890.13;10264317;28;20027;-79
2024/03/17 16:01:19;;;;;;;;;;;;;;;13.60;98.75;94902.06;10295243;28;19916;-79
2024/03/17 16:06:20;;;;;;;;;;;;;;;13.50;97.51;94897.59;10276510;28;20667;-79
2024/03/17 16:11:27;;;;;;;;;;;;;;;13.29;100.00;94902.38;10298859;28;19913;-80
2024/03/17 16:16:29;;;;;;;;;;;;;;;13.12;100.00;94913.63;10294722;28;20546;-78
2024/03/17 16:21:30;;;;;;;;;;;;;;;13.06;100.00;94909.38;10303142;28;20284;-78
2024/03/17 16:26:31;;;;;;;;;;;;;;;12.99;100.00;94915.09;10282399;28;19913;-79
2024/03/17 16:31:31;;;;;;;;;;;;;;;12.97;100.00;94921.88;10290993;28;20222;-80
2024/03/17 16:36:33;;;;;;;;;;;;;;;12.88;100.00;94924.38;10282700;28;19925;-79
2024/03/17 16:41:34;;;;;;;;;;;;;;;12.83;100.00;94935.19;10299393;28;19914;-86
2024/03/17 16:47:01;;;;;;;;;;;;;;;12.91;100.00;94939.19;10279276;28;20328;-87
2024/03/17 16:52:06;;;;;;;;;;;;;;;12.93;100.00;94937.00;10287856;28;19918;-78
2024/03/17 16:57:07;;;;;;;;;;;;;;;12.87;100.00;94944.34;10305704;28;19917;-82
2024/03/17 17:02:13;;;;;;;;;;;;;;;12.76;100.00;94946.28;10305807;28;19948;-84
2024/03/17 17:07:13;;;;;;;;;;;;;;;12.27;100.00;94947.97;10294029;28;19918;-84
2024/03/17 17:12:14;;;;;;;;;;;;;;;12.33;100.00;94951.44;10279858;28;20615;-79
2024/03/17 17:17:14;;;;;;;;;;;;;;;12.50;100.00;94961.06;10304219;28;19980;-80
2024/03/17 17:22:16;;;;;;;;;;;;;;;12.52;100.00;94958.91;10302584;28;19922;-80
2024/03/17 17:27:16;;;;;;;;;;;;;;;12.16;100.00;94961.78;10300683;28;19918;-79
2024/03/17 17:32:16;;;;;;;;;;;;;;;12.18;100.00;94965.81;10308832;28;19918;-82
2024/03/17 17:37:18;;;;;;;;;;;;;;;12.17;100.00;94979.53;10303273;28;19921;-80
2024/03/17 17:42:21;;;;;;;;;;;;;;;12.23;100.00;94975.75;10298700;28;19953;-87
2024/03/17 17:47:24;;;;;;;;;;;;;;;11.88;100.00;94981.00;10300554;28;19914;-81
2024/03/17 17:52:24;;;;;;;;;;;;;;;11.74;100.00;94983.47;10298919;28;21543;-80
2024/03/17 17:57:26;;;;;;;;;;;;;;;11.86;100.00;94979.66;10277132;28;19914;-81
2024/03/17 18:02:28;;;;;;;;;;;;;;;11.78;100.00;94984.53;10279822;28;20021;-80
2024/03/17 18:07:29;;;;;;;;;;;;;;;11.86;100.00;94990.41;10273203;28;19937;-79
2024/03/17 18:12:29;;;;;;;;;;;;;;;11.88;100.00;94990.97;10291549;28;19928;-81
2024/03/17 18:17:30;;;;;;;;;;;;;;;11.84;100.00;94990.69;10279411;28;20272;-81
2024/03/17 18:22:31;;;;;;;;;;;;;;;11.83;100.00;94990.97;10281860;28;19917;-80
2024/03/17 18:27:31;;;;;;;;;;;;;;;11.50;100.00;94988.66;10303025;28;19914;-78
2024/03/17 18:32:31;;;;;;;;;;;;;;;11.40;100.00;94988.66;10295704;28;19921;-76
2024/03/17 18:37:32;;;;;;;;;;;;;;;10.94;100.00;94989.53;10293409;28;19926;-76
2024/03/17 18:42:32;;;;;;;;;;;;;;;10.62;100.00;95000.50;10291392;28;19921;-73
2024/03/17 18:47:33;;;;;;;;;;;;;;;10.49;100.00;95001.81;10289957;28;20016;-78
2024/03/17 18:52:33;;;;;;;;;;;;;;;10.45;100.00;94998.84;10292934;28;19913;-76
2024/03/17 18:57:33;;;;;;;;;;;;;;;10.52;100.00;95007.47;10294451;28;19996;-79
2024/03/17 19:02:34;;;;;;;;;;;;;;;10.68;100.00;95008.31;10286682;28;20411;-78
2024/03/17 19:07:34;;;;;;;;;;;;;;;10.80;100.00;95013.44;10285255;28;19910;-77
2024/03/17 19:12:34;;;;;;;;;;;;;;;11.05;100.00;95009.94;10293497;28;20348;-78
2024/03/17 19:17:35;;;;;;;;;;;;;;;10.73;100.00;95018.25;10293526;28;19917;-78
2024/03/17 19:22:39;;;;;;;;;;;;;;;10.74;100.00;95018.00;10284508;28;20377;-78
2024/03/17 19:27:40;;;;;;;;;;;;;;;10.74;100.00;95009.13;10278387;28;20256;-74
2024/03/17 19:32:40;;;;;;;;;;;;;;;10.54;100.00;95005.31;10285273;28;19924;-76
2024/03/17 19:37:40;;;;;;;;;;;;;;;10.57;100.00;95007.47;10287476;28;20424;-75
2024/03/17 19:42:41;;;;;;;;;;;;;;;10.54;100.00;95005.31;10289872;28;19913;-75
2024/03/17 19:47:42;;;;;;;;;;;;;;;10.55;100.00;94990.03;10269764;28;19916;-76
2024/03/17 19:52:43;;;;;;;;;;;;;;;10.41;100.00;94989.72;10288719;28;19917;-77
2024/03/17 19:57:43;;;;;;;;;;;;;;;10.49;100.00;94999.94;10286984;28;19936;-75
2024/03/17 20:02:43;;;;;;;;;;;;;;;10.52;100.00;94994.03;10291670;28;19921;-75
2024/03/17 20:07:47;;;;;;;;;;;;;;;10.61;100.00;94994.31;10278085;28;19956;-78
2024/03/17 20:12:48;;;;;;;;;;;;;;;10.67;100.00;94998.63;10289753;28;19921;-77
2024/03/17 20:17:48;;;;;;;;;;;;;;;10.56;100.00;95000.50;10272408;28;20320;-76
2024/03/17 20:22:49;;;;;;;;;;;;;;;10.51;100.00;94997.78;10293936;28;19983;-75
2024/03/17 20:27:49;;;;;;;;;;;;;;;10.59;100.00;94989.22;10288714;28;20315;-76
2024/03/17 20:32:50;;;;;;;;;;;;;;;10.29;100.00;94997.19;10290081;28;20420;-80
2024/03/17 20:37:50;;;;;;;;;;;;;;;10.04;100.00;94990.66;10291041;28;20071;-78
2024/03/17 20:42:52;;;;;;;;;;;;;;;10.18;100.00;94993.66;10289863;28;19971;-78
2024/03/17 20:47:52;;;;;;;;;;;;;;;10.07;100.00;94992.81;10289999;28;20359;-78
2024/03/17 20:52:52;;;;;;;;;;;;;;;9.98;100.00;94987.16;10285610;28;19920;-75
2024/03/17 20:57:53;;;;;;;;;;;;;;;9.99;100.00;94991.44;10277888;28;20021;-75
2024/03/17 21:02:54;;;;;;;;;;;;;;;9.99;100.00;94988.75;10279484;28;20369;-75
2024/03/17 21:07:55;;;;;;;;;;;;;;;9.81;100.00;94991.88;10275775;28;19914;-76
2024/03/17 21:12:55;;;;;;;;;;;;;;;9.80;100.00;94995.66;10285736;28;19921;-75
2024/03/17 21:17:56;;;;;;;;;;;;;;;9.80;100.00;94992.97;10291078;28;19917;-83
2024/03/17 21:22:58;;;;;;;;;;;;;;;9.86;100.00;94990.03;10299141;28;19937;-79
2024/03/17 21:27:58;;;;;;;;;;;;;;;9.71;100.00;94985.44;10277242;28;19913;-80
2024/03/17 21:33:00;;;;;;;;;;;;;;;9.71;100.00;94985.44;10288727;28;20241;-76
2024/03/17 21:38:00;;;;;;;;;;;;;;;9.65;100.00;94975.72;10289629;28;20357;-78
2024/03/17 21:43:01;;;;;;;;;;;;;;;9.62;100.00;94975.44;10292177;28;20410;-75
2024/03/17 21:48:01;;;;;;;;;;;;;;;9.52;100.00;94974.31;10298186;28;20300;-75
2024/03/17 21:53:02;;;;;;;;;;;;;;;9.47;100.00;94973.47;10293438;28;19922;-78
2024/03/17 21:58:04;;;;;;;;;;;;;;;9.43;100.00;94980.44;10290412;28;19910;-78
2024/03/17 22:03:04;;;;;;;;;;;;;;;9.37;100.00;94975.03;10278479;28;19914;-78
2024/03/17 22:08:05;;;;;;;;;;;;;;;9.20;100.00;94977.09;10294294;28;19917;-74
2024/03/17 22:13:06;;;;;;;;;;;;;;;9.22;100.00;94978.44;10301234;28;19925;-77
2024/03/17 22:18:07;;;;;;;;;;;;;;;9.02;100.00;94967.56;10295482;28;19929;-76
2024/03/17 22:23:07;;;;;;;;;;;;;;;9.04;100.00;94962.75;10297735;28;20025;-76
2024/03/17 22:28:07;;;;;;;;;;;;;;;9.09;100.00;94964.69;10282701;28;19924;-77
2024/03/17 22:33:07;;;;;;;;;;;;;;;9.04;100.00;94952.84;10301388;28;19914;-77
2024/03/17 22:38:08;;;;;;;;;;;;;;;9.00;100.00;94953.59;10297973;28;19925;-76
2024/03/17 22:43:09;;;;;;;;;;;;;;;8.92;100.00;94959.44;10280309;28;19913;-77
2024/03/17 22:48:09;;;;;;;;;;;;;;;8.83;100.00;94959.94;10297164;28;20012;-77
2024/03/17 22:53:09;;;;;;;;;;;;;;;8.77;100.00;94946.75;10299073;28;20348;-75
2024/03/17 22:58:09;;;;;;;;;;;;;;;8.76;100.00;94956.66;10301378;28;19924;-76
2024/03/17 23:03:10;;;;;;;;;;;;;;;8.61;100.00;94949.31;10300457;28;19920;-76
2024/03/17 23:08:10;;;;;;;;;;;;;;;8.49;100.00;94944.09;10300808;28;19952;-76
2024/03/17 23:13:11;;;;;;;;;;;;;;;8.48;100.00;94941.69;10322044;28;19943;-76
2024/03/17 23:18:11;;;;;;;;;;;;;;;8.46;100.00;94941.94;10295177;28;19916;-76
2024/03/17 23:23:12;;;;;;;;;;;;;;;8.44;100.00;94938.69;10292382;28;20285;-76
2024/03/17 23:28:13;;;;;;;;;;;;;;;8.43;100.00;94933.56;10280133;28;20377;-75
2024/03/17 23:33:15;;;;;;;;;;;;;;;8.42;100.00;94940.81;10288841;28;19974;-75
2024/03/17 23:38:15;;;;;;;;;;;;;;;8.34;100.00;94936.72;10312464;28;19925;-75
2024/03/17 23:43:16;;;;;;;;;;;;;;;8.37;100.00;94936.22;10302377;28;19918;-75
2024/03/17 23:48:16;;;;;;;;;;;;;;;8.34;100.00;94930.53;10280850;28;19910;-76
2024/03/17 23:53:16;;;;;;;;;;;;;;;8.34;100.00;94925.19;10296556;28;19926;-76
2024/03/17 23:58:16;;;;;;;;;;;;;;;8.20;100.00;94922.13;10299516;28;19917;-75
